Terminal Aerodrome Forecast
Issued by NWS

Home | Current Version | Previous Version | Text Only | Print | Product List | Glossary On
Versions: 1 2 3 4 5 6 7 8 9 10 11 12 13 14 15 16 17 18 19 20 21 22 23 24
583
FTUS46 KMTR 160538
TAFSFO
TAF
KSFO 160538Z 1606/1712 27012KT P6SM FEW008 FEW011 OVC180
     FM160800 30018G26KT P6SM SKC
     FM161000 32024G32KT P6SM SKC
     FM161200 34028G36KT P6SM SKC
     FM161800 33018G24KT P6SM FEW250
     FM162200 33018KT P6SM FEW250
     FM170400 31011KT P6SM SKC=

USA.gov is the U.S. government's official web portal to all federal, state and local government web resources and services.